sensor_id;sensor_type;location;lat;lon;timestamp;temperature;humidity
47384;DHT22;33129;52.232;5.192;2022-12-18T00:01:16;1.20;1.00
47384;DHT22;33129;52.232;5.192;2022-12-18T00:03:46;0.70;1.00
47384;DHT22;33129;52.232;5.192;2022-12-18T00:06:13;0.70;1.00
47384;DHT22;33129;52.232;5.192;2022-12-18T00:08:40;0.90;1.00
47384;DHT22;33129;52.232;5.192;2022-12-18T00:11:08;1.00;1.00
47384;DHT22;33129;52.232;5.192;2022-12-18T00:13:37;1.00;1.00
47384;DHT22;33129;52.232;5.192;2022-12-18T00:16:11;1.10;1.00
47384;DHT22;33129;52.232;5.192;2022-12-18T00:18:38;0.70;1.00
47384;DHT22;33129;52.232;5.192;2022-12-18T00:21:07;0.80;1.00
47384;DHT22;33129;52.232;5.192;2022-12-18T00:23:35;0.70;1.00
47384;DHT22;33129;52.232;5.192;2022-12-18T00:26:06;1.10;1.00
47384;DHT22;33129;52.232;5.192;2022-12-18T00:28:34;1.00;1.00
47384;DHT22;33129;52.232;5.192;2022-12-18T00:31:05;1.10;1.00
47384;DHT22;33129;52.232;5.192;2022-12-18T00:33:33;0.90;1.00
47384;DHT22;33129;52.232;5.192;2022-12-18T00:36:09;0.90;1.00
47384;DHT22;33129;52.232;5.192;2022-12-18T00:38:39;0.70;1.00
47384;DHT22;33129;52.232;5.192;2022-12-18T00:41:06;0.60;1.00
47384;DHT22;33129;52.232;5.192;2022-12-18T00:43:34;0.60;1.00
47384;DHT22;33129;52.232;5.192;2022-12-18T00:46:00;0.90;1.00
47384;DHT22;33129;52.232;5.192;2022-12-18T00:48:25;0.60;1.00
47384;DHT22;33129;52.232;5.192;2022-12-18T00:50:51;0.80;1.00
47384;DHT22;33129;52.232;5.192;2022-12-18T00:53:18;0.70;1.00
47384;DHT22;33129;52.232;5.192;2022-12-18T00:55:45;0.50;1.00
47384;DHT22;33129;52.232;5.192;2022-12-18T00:58:12;0.80;1.00
47384;DHT22;33129;52.232;5.192;2022-12-18T01:00:38;0.90;1.00
47384;DHT22;33129;52.232;5.192;2022-12-18T01:03:05;0.60;1.00
47384;DHT22;33129;52.232;5.192;2022-12-18T01:05:32;0.60;1.00
47384;DHT22;33129;52.232;5.192;2022-12-18T01:07:58;0.70;1.00
47384;DHT22;33129;52.232;5.192;2022-12-18T01:10:25;0.90;1.00
47384;DHT22;33129;52.232;5.192;2022-12-18T01:12:52;0.80;1.00
47384;DHT22;33129;52.232;5.192;2022-12-18T01:15:18;1.00;1.00
47384;DHT22;33129;52.232;5.192;2022-12-18T01:17:45;0.90;1.00
47384;DHT22;33129;52.232;5.192;2022-12-18T01:20:12;0.80;1.00
47384;DHT22;33129;52.232;5.192;2022-12-18T01:22:38;0.90;1.00
47384;DHT22;33129;52.232;5.192;2022-12-18T01:25:05;0.90;1.00
47384;DHT22;33129;52.232;5.192;2022-12-18T01:27:32;0.60;1.00
47384;DHT22;33129;52.232;5.192;2022-12-18T01:29:58;0.50;1.00
47384;DHT22;33129;52.232;5.192;2022-12-18T01:32:24;0.40;1.00
47384;DHT22;33129;52.232;5.192;2022-12-18T01:34:50;0.40;1.00
47384;DHT22;33129;52.232;5.192;2022-12-18T01:37:16;0.40;1.00
47384;DHT22;33129;52.232;5.192;2022-12-18T01:39:42;0.70;1.00
47384;DHT22;33129;52.232;5.192;2022-12-18T01:42:13;0.60;1.00
47384;DHT22;33129;52.232;5.192;2022-12-18T01:45:00;0.80;1.00
47384;DHT22;33129;52.232;5.192;2022-12-18T01:48:12;0.30;1.00
47384;DHT22;33129;52.232;5.192;2022-12-18T01:50:42;0.30;1.00
47384;DHT22;33129;52.232;5.192;2022-12-18T01:53:17;0.50;1.00
47384;DHT22;33129;52.232;5.192;2022-12-18T01:55:51;0.50;1.00
47384;DHT22;33129;52.232;5.192;2022-12-18T01:58:21;0.40;1.00
47384;DHT22;33129;52.232;5.192;2022-12-18T02:00:55;0.90;1.00
47384;DHT22;33129;52.232;5.192;2022-12-18T02:03:21;1.00;1.00
47384;DHT22;33129;52.232;5.192;2022-12-18T02:06:33;1.00;1.00
47384;DHT22;33129;52.232;5.192;2022-12-18T02:12:05;0.00;1.00
47384;DHT22;33129;52.232;5.192;2022-12-18T02:17:39;0.50;1.00
47384;DHT22;33129;52.232;5.192;2022-12-18T02:20:32;0.20;1.00
47384;DHT22;33129;52.232;5.192;2022-12-18T02:26:20;0.70;1.00
47384;DHT22;33129;52.232;5.192;2022-12-18T02:29:08;0.90;1.00
47384;DHT22;33129;52.232;5.192;2022-12-18T02:31:43;0.90;1.00
47384;DHT22;33129;52.232;5.192;2022-12-18T02:34:13;1.00;1.00
47384;DHT22;33129;52.232;5.192;2022-12-18T02:36:41;0.80;1.00
47384;DHT22;33129;52.232;5.192;2022-12-18T02:39:11;0.80;1.00
47384;DHT22;33129;52.232;5.192;2022-12-18T02:41:37;1.00;1.00
47384;DHT22;33129;52.232;5.192;2022-12-18T02:44:11;0.80;1.00
47384;DHT22;33129;52.232;5.192;2022-12-18T02:46:50;0.80;1.00
47384;DHT22;33129;52.232;5.192;2022-12-18T02:49:53;0.40;1.00
47384;DHT22;33129;52.232;5.192;2022-12-18T02:52:38;0.60;1.00
47384;DHT22;33129;52.232;5.192;2022-12-18T02:57:54;0.20;1.00
47384;DHT22;33129;52.232;5.192;2022-12-18T03:00:39;0.10;1.00
47384;DHT22;33129;52.232;5.192;2022-12-18T03:03:14;-0.10;1.00
47384;DHT22;33129;52.232;5.192;2022-12-18T03:08:33;0.30;1.00
47384;DHT22;33129;52.232;5.192;2022-12-18T03:11:09;0.10;1.00
47384;DHT22;33129;52.232;5.192;2022-12-18T03:16:11;-0.40;1.00
47384;DHT22;33129;52.232;5.192;2022-12-18T03:18:51;-0.20;1.00
47384;DHT22;33129;52.232;5.192;2022-12-18T03:21:25;0.40;1.00
47384;DHT22;33129;52.232;5.192;2022-12-18T03:23:54;0.00;1.00
47384;DHT22;33129;52.232;5.192;2022-12-18T03:26:24;0.30;1.00
47384;DHT22;33129;52.232;5.192;2022-12-18T03:28:54;-0.10;1.00
47384;DHT22;33129;52.232;5.192;2022-12-18T03:31:26;0.00;1.00
47384;DHT22;33129;52.232;5.192;2022-12-18T03:33:55;0.00;1.00
47384;DHT22;33129;52.232;5.192;2022-12-18T03:36:23;0.20;1.00
47384;DHT22;33129;52.232;5.192;2022-12-18T03:38:50;0.40;1.00
47384;DHT22;33129;52.232;5.192;2022-12-18T03:44:13;0.10;1.00
47384;DHT22;33129;52.232;5.192;2022-12-18T03:52:54;-0.10;1.00
47384;DHT22;33129;52.232;5.192;2022-12-18T03:55:25;-0.30;1.00
47384;DHT22;33129;52.232;5.192;2022-12-18T03:57:54;0.10;1.00
47384;DHT22;33129;52.232;5.192;2022-12-18T04:00:20;0.10;1.00
47384;DHT22;33129;52.232;5.192;2022-12-18T04:02:50;0.10;1.00
47384;DHT22;33129;52.232;5.192;2022-12-18T04:05:17;0.10;1.00
47384;DHT22;33129;52.232;5.192;2022-12-18T04:07:47;0.50;1.00
47384;DHT22;33129;52.232;5.192;2022-12-18T04:10:17;0.40;1.00
47384;DHT22;33129;52.232;5.192;2022-12-18T04:12:44;0.40;1.00
47384;DHT22;33129;52.232;5.192;2022-12-18T04:15:11;0.30;1.00
47384;DHT22;33129;52.232;5.192;2022-12-18T04:17:38;0.40;1.00
47384;DHT22;33129;52.232;5.192;2022-12-18T04:20:05;0.40;1.00
47384;DHT22;33129;52.232;5.192;2022-12-18T04:22:31;0.30;99.90
47384;DHT22;33129;52.232;5.192;2022-12-18T04:24:57;0.20;99.90
47384;DHT22;33129;52.232;5.192;2022-12-18T04:27:23;0.30;99.90
47384;DHT22;33129;52.232;5.192;2022-12-18T04:29:48;0.30;1.00
47384;DHT22;33129;52.232;5.192;2022-12-18T04:32:14;0.30;99.90
47384;DHT22;33129;52.232;5.192;2022-12-18T04:34:40;0.00;99.90
47384;DHT22;33129;52.232;5.192;2022-12-18T04:37:06;0.00;99.90
47384;DHT22;33129;52.232;5.192;2022-12-18T04:39:31;-0.20;1.00
47384;DHT22;33129;52.232;5.192;2022-12-18T04:42:00;-0.10;1.00
47384;DHT22;33129;52.232;5.192;2022-12-18T04:44:26;0.10;1.00
47384;DHT22;33129;52.232;5.192;2022-12-18T04:46:51;-0.10;1.00
47384;DHT22;33129;52.232;5.192;2022-12-18T04:49:17;-0.10;1.00
47384;DHT22;33129;52.232;5.192;2022-12-18T04:51:43;0.30;99.90
47384;DHT22;33129;52.232;5.192;2022-12-18T04:54:08;0.30;99.90
47384;DHT22;33129;52.232;5.192;2022-12-18T04:56:34;0.40;99.90
47384;DHT22;33129;52.232;5.192;2022-12-18T04:59:00;0.40;99.90
47384;DHT22;33129;52.232;5.192;2022-12-18T05:01:27;0.30;99.90
47384;DHT22;33129;52.232;5.192;2022-12-18T05:03:52;0.30;99.90
47384;DHT22;33129;52.232;5.192;2022-12-18T05:06:18;0.40;99.90
47384;DHT22;33129;52.232;5.192;2022-12-18T05:08:44;0.60;99.90
47384;DHT22;33129;52.232;5.192;2022-12-18T05:11:14;0.40;99.90
47384;DHT22;33129;52.232;5.192;2022-12-18T05:13:41;0.50;99.90
47384;DHT22;33129;52.232;5.192;2022-12-18T05:16:08;0.60;99.90
47384;DHT22;33129;52.232;5.192;2022-12-18T05:18:34;0.40;99.90
47384;DHT22;33129;52.232;5.192;2022-12-18T05:21:00;0.20;99.90
47384;DHT22;33129;52.232;5.192;2022-12-18T05:23:26;0.20;99.90
47384;DHT22;33129;52.232;5.192;2022-12-18T05:25:55;0.20;99.90
47384;DHT22;33129;52.232;5.192;2022-12-18T05:28:23;0.50;99.90
47384;DHT22;33129;52.232;5.192;2022-12-18T05:30:56;0.30;99.90
47384;DHT22;33129;52.232;5.192;2022-12-18T05:33:25;0.40;99.90
47384;DHT22;33129;52.232;5.192;2022-12-18T05:35:53;0.30;99.90
47384;DHT22;33129;52.232;5.192;2022-12-18T05:38:22;0.00;99.90
47384;DHT22;33129;52.232;5.192;2022-12-18T05:40:50;-0.10;99.90
47384;DHT22;33129;52.232;5.192;2022-12-18T05:43:17;0.10;99.90
47384;DHT22;33129;52.232;5.192;2022-12-18T05:45:44;0.10;99.90
47384;DHT22;33129;52.232;5.192;2022-12-18T05:48:10;0.00;99.90
47384;DHT22;33129;52.232;5.192;2022-12-18T05:50:39;0.10;99.90
47384;DHT22;33129;52.232;5.192;2022-12-18T05:53:06;0.00;99.90
47384;DHT22;33129;52.232;5.192;2022-12-18T05:55:37;-0.10;99.90
47384;DHT22;33129;52.232;5.192;2022-12-18T05:58:04;-0.20;99.90
47384;DHT22;33129;52.232;5.192;2022-12-18T06:00:32;0.00;99.90
47384;DHT22;33129;52.232;5.192;2022-12-18T06:03:00;-0.20;99.90
47384;DHT22;33129;52.232;5.192;2022-12-18T06:05:26;-0.10;99.90
47384;DHT22;33129;52.232;5.192;2022-12-18T06:07:52;0.00;99.90
47384;DHT22;33129;52.232;5.192;2022-12-18T06:10:19;-0.20;99.90
47384;DHT22;33129;52.232;5.192;2022-12-18T06:12:45;0.00;99.90
47384;DHT22;33129;52.232;5.192;2022-12-18T06:15:11;-0.10;99.90
47384;DHT22;33129;52.232;5.192;2022-12-18T06:17:37;-0.20;99.90
47384;DHT22;33129;52.232;5.192;2022-12-18T06:20:03;-0.80;99.90
47384;DHT22;33129;52.232;5.192;2022-12-18T06:22:31;-0.50;99.90
47384;DHT22;33129;52.232;5.192;2022-12-18T06:24:57;-0.70;99.90
47384;DHT22;33129;52.232;5.192;2022-12-18T06:27:24;-0.70;99.90
47384;DHT22;33129;52.232;5.192;2022-12-18T06:29:50;-0.80;99.90
47384;DHT22;33129;52.232;5.192;2022-12-18T06:32:16;-0.80;99.90
47384;DHT22;33129;52.232;5.192;2022-12-18T06:34:42;-0.60;99.90
47384;DHT22;33129;52.232;5.192;2022-12-18T06:37:08;-0.50;99.90
47384;DHT22;33129;52.232;5.192;2022-12-18T06:39:34;-0.30;99.90
47384;DHT22;33129;52.232;5.192;2022-12-18T06:41:59;-0.40;99.90
47384;DHT22;33129;52.232;5.192;2022-12-18T06:44:25;-0.40;99.90
47384;DHT22;33129;52.232;5.192;2022-12-18T06:46:51;-0.40;99.90
47384;DHT22;33129;52.232;5.192;2022-12-18T06:49:17;-0.30;99.90
47384;DHT22;33129;52.232;5.192;2022-12-18T06:51:43;-0.30;99.90
47384;DHT22;33129;52.232;5.192;2022-12-18T06:54:09;-0.40;99.90
47384;DHT22;33129;52.232;5.192;2022-12-18T06:56:35;-0.50;99.90
47384;DHT22;33129;52.232;5.192;2022-12-18T06:59:01;-0.40;99.90
47384;DHT22;33129;52.232;5.192;2022-12-18T07:01:27;-0.60;99.90
47384;DHT22;33129;52.232;5.192;2022-12-18T07:03:54;-0.60;99.90
47384;DHT22;33129;52.232;5.192;2022-12-18T07:06:23;-0.50;99.90
47384;DHT22;33129;52.232;5.192;2022-12-18T07:08:50;-0.80;99.90
47384;DHT22;33129;52.232;5.192;2022-12-18T07:11:19;-0.80;99.90
47384;DHT22;33129;52.232;5.192;2022-12-18T07:13:45;-0.50;99.90
47384;DHT22;33129;52.232;5.192;2022-12-18T07:16:13;-0.60;99.90
47384;DHT22;33129;52.232;5.192;2022-12-18T07:18:41;-0.40;99.90
47384;DHT22;33129;52.232;5.192;2022-12-18T07:21:09;-0.50;99.90
47384;DHT22;33129;52.232;5.192;2022-12-18T07:23:37;-0.50;99.90
47384;DHT22;33129;52.232;5.192;2022-12-18T07:26:11;-0.40;99.90
47384;DHT22;33129;52.232;5.192;2022-12-18T07:28:39;-0.60;99.90
47384;DHT22;33129;52.232;5.192;2022-12-18T07:31:08;-0.60;99.90
47384;DHT22;33129;52.232;5.192;2022-12-18T07:33:37;-0.40;99.90
47384;DHT22;33129;52.232;5.192;2022-12-18T07:36:04;-0.30;99.90
47384;DHT22;33129;52.232;5.192;2022-12-18T07:38:33;-0.50;99.90
47384;DHT22;33129;52.232;5.192;2022-12-18T07:41:11;-0.30;99.90
47384;DHT22;33129;52.232;5.192;2022-12-18T07:43:38;-0.60;99.90
47384;DHT22;33129;52.232;5.192;2022-12-18T07:46:05;-0.60;99.90
47384;DHT22;33129;52.232;5.192;2022-12-18T07:48:31;-0.60;99.90
47384;DHT22;33129;52.232;5.192;2022-12-18T07:51:02;-0.60;99.90
47384;DHT22;33129;52.232;5.192;2022-12-18T07:53:29;-0.80;99.90
47384;DHT22;33129;52.232;5.192;2022-12-18T07:56:01;-0.60;99.90
47384;DHT22;33129;52.232;5.192;2022-12-18T07:58:30;-0.40;99.90
47384;DHT22;33129;52.232;5.192;2022-12-18T08:01:09;-0.60;99.90
47384;DHT22;33129;52.232;5.192;2022-12-18T08:03:36;-0.60;99.90
47384;DHT22;33129;52.232;5.192;2022-12-18T08:06:04;-0.40;99.90
47384;DHT22;33129;52.232;5.192;2022-12-18T08:08:32;-0.60;99.90
47384;DHT22;33129;52.232;5.192;2022-12-18T08:10:59;-0.60;99.90
47384;DHT22;33129;52.232;5.192;2022-12-18T08:13:26;-0.50;99.90
47384;DHT22;33129;52.232;5.192;2022-12-18T08:15:57;-0.50;99.90
47384;DHT22;33129;52.232;5.192;2022-12-18T08:18:24;-0.20;99.90
47384;DHT22;33129;52.232;5.192;2022-12-18T08:20:50;-0.20;99.90
47384;DHT22;33129;52.232;5.192;2022-12-18T08:23:16;0.00;99.90
47384;DHT22;33129;52.232;5.192;2022-12-18T08:25:42;0.10;99.90
47384;DHT22;33129;52.232;5.192;2022-12-18T08:28:08;-0.20;99.90
47384;DHT22;33129;52.232;5.192;2022-12-18T08:30:33;0.30;99.90
47384;DHT22;33129;52.232;5.192;2022-12-18T08:32:59;0.10;99.90
47384;DHT22;33129;52.232;5.192;2022-12-18T08:35:25;0.10;99.90
47384;DHT22;33129;52.232;5.192;2022-12-18T08:37:52;0.10;99.90
47384;DHT22;33129;52.232;5.192;2022-12-18T08:40:18;0.00;99.90
47384;DHT22;33129;52.232;5.192;2022-12-18T08:42:43;0.10;99.90
47384;DHT22;33129;52.232;5.192;2022-12-18T08:45:28;-0.10;99.90
47384;DHT22;33129;52.232;5.192;2022-12-18T08:47:54;0.00;99.90
47384;DHT22;33129;52.232;5.192;2022-12-18T08:50:20;0.30;99.90
47384;DHT22;33129;52.232;5.192;2022-12-18T08:52:46;0.30;99.90
47384;DHT22;33129;52.232;5.192;2022-12-18T08:55:12;0.60;99.90
47384;DHT22;33129;52.232;5.192;2022-12-18T08:57:38;0.60;99.90
47384;DHT22;33129;52.232;5.192;2022-12-18T09:00:04;0.80;99.90
47384;DHT22;33129;52.232;5.192;2022-12-18T09:02:31;1.10;99.90
47384;DHT22;33129;52.232;5.192;2022-12-18T09:04:56;1.30;99.90
47384;DHT22;33129;52.232;5.192;2022-12-18T09:07:22;1.00;99.90
47384;DHT22;33129;52.232;5.192;2022-12-18T09:09:48;1.10;99.90
47384;DHT22;33129;52.232;5.192;2022-12-18T09:12:13;0.80;99.90
47384;DHT22;33129;52.232;5.192;2022-12-18T09:14:39;1.00;99.90
47384;DHT22;33129;52.232;5.192;2022-12-18T09:17:05;0.50;99.90
47384;DHT22;33129;52.232;5.192;2022-12-18T09:19:31;0.50;99.90
47384;DHT22;33129;52.232;5.192;2022-12-18T09:21:56;0.30;99.90
47384;DHT22;33129;52.232;5.192;2022-12-18T09:24:22;0.20;99.90
47384;DHT22;33129;52.232;5.192;2022-12-18T09:26:48;0.40;99.90
47384;DHT22;33129;52.232;5.192;2022-12-18T09:29:15;0.90;99.90
47384;DHT22;33129;52.232;5.192;2022-12-18T09:31:41;1.00;99.90
47384;DHT22;33129;52.232;5.192;2022-12-18T09:34:07;0.80;99.90
47384;DHT22;33129;52.232;5.192;2022-12-18T09:36:33;0.80;99.90
47384;DHT22;33129;52.232;5.192;2022-12-18T09:38:59;0.90;99.90
47384;DHT22;33129;52.232;5.192;2022-12-18T09:47:10;0.90;99.90
47384;DHT22;33129;52.232;5.192;2022-12-18T09:49:44;0.80;99.90
47384;DHT22;33129;52.232;5.192;2022-12-18T09:55:00;0.90;99.90
47384;DHT22;33129;52.232;5.192;2022-12-18T09:57:31;0.60;99.90
47384;DHT22;33129;52.232;5.192;2022-12-18T10:00:24;0.70;99.90
47384;DHT22;33129;52.232;5.192;2022-12-18T10:03:00;0.70;99.90
47384;DHT22;33129;52.232;5.192;2022-12-18T10:22:39;0.50;99.90
47384;DHT22;33129;52.232;5.192;2022-12-18T10:25:25;0.80;99.90
47384;DHT22;33129;52.232;5.192;2022-12-18T10:28:00;1.20;99.90
47384;DHT22;33129;52.232;5.192;2022-12-18T10:30:33;1.20;99.90
47384;DHT22;33129;52.232;5.192;2022-12-18T10:33:02;0.80;99.90
47384;DHT22;33129;52.232;5.192;2022-12-18T10:35:28;1.20;99.90
47384;DHT22;33129;52.232;5.192;2022-12-18T10:43:28;1.00;99.90
47384;DHT22;33129;52.232;5.192;2022-12-18T10:48:26;1.20;99.90
47384;DHT22;33129;52.232;5.192;2022-12-18T10:50:53;1.30;99.90
47384;DHT22;33129;52.232;5.192;2022-12-18T10:53:23;1.90;1.00
47384;DHT22;33129;52.232;5.192;2022-12-18T10:55:52;1.90;99.90
47384;DHT22;33129;52.232;5.192;2022-12-18T10:58:32;1.20;99.90
47384;DHT22;33129;52.232;5.192;2022-12-18T11:01:04;1.20;99.90
47384;DHT22;33129;52.232;5.192;2022-12-18T11:03:43;1.50;99.90
47384;DHT22;33129;52.232;5.192;2022-12-18T11:06:14;1.40;99.90
47384;DHT22;33129;52.232;5.192;2022-12-18T11:08:41;1.40;99.90
47384;DHT22;33129;52.232;5.192;2022-12-18T11:11:22;1.00;99.90
47384;DHT22;33129;52.232;5.192;2022-12-18T11:16:35;1.10;99.90
47384;DHT22;33129;52.232;5.192;2022-12-18T11:19:37;1.20;99.90
47384;DHT22;33129;52.232;5.192;2022-12-18T11:25:02;1.30;99.90
47384;DHT22;33129;52.232;5.192;2022-12-18T11:27:31;1.60;99.90
47384;DHT22;33129;52.232;5.192;2022-12-18T11:30:28;1.50;99.90
47384;DHT22;33129;52.232;5.192;2022-12-18T11:33:15;1.40;99.90
47384;DHT22;33129;52.232;5.192;2022-12-18T11:35:59;1.30;99.90
47384;DHT22;33129;52.232;5.192;2022-12-18T11:38:35;1.40;99.90
47384;DHT22;33129;52.232;5.192;2022-12-18T11:41:21;1.50;99.90
47384;DHT22;33129;52.232;5.192;2022-12-18T11:44:14;1.40;99.90
47384;DHT22;33129;52.232;5.192;2022-12-18T11:46:53;1.60;99.90
47384;DHT22;33129;52.232;5.192;2022-12-18T11:49:28;1.80;99.90
47384;DHT22;33129;52.232;5.192;2022-12-18T11:52:19;1.80;99.90
47384;DHT22;33129;52.232;5.192;2022-12-18T11:54:51;1.90;99.90
47384;DHT22;33129;52.232;5.192;2022-12-18T12:00:22;2.10;99.90
47384;DHT22;33129;52.232;5.192;2022-12-18T12:03:14;1.90;99.90
47384;DHT22;33129;52.232;5.192;2022-12-18T12:06:24;2.20;99.90
47384;DHT22;33129;52.232;5.192;2022-12-18T12:23:22;1.90;99.90
47384;DHT22;33129;52.232;5.192;2022-12-18T12:26:11;1.80;99.90
47384;DHT22;33129;52.232;5.192;2022-12-18T12:29:25;2.10;99.90
47384;DHT22;33129;52.232;5.192;2022-12-18T12:31:58;1.80;99.90
47384;DHT22;33129;52.232;5.192;2022-12-18T12:40:19;2.00;99.90
47384;DHT22;33129;52.232;5.192;2022-12-18T12:42:48;1.70;99.90
47384;DHT22;33129;52.232;5.192;2022-12-18T12:45:54;1.90;99.90
47384;DHT22;33129;52.232;5.192;2022-12-18T12:48:43;1.80;99.90
47384;DHT22;33129;52.232;5.192;2022-12-18T12:51:28;2.00;99.90
47384;DHT22;33129;52.232;5.192;2022-12-18T12:54:00;1.90;99.90
47384;DHT22;33129;52.232;5.192;2022-12-18T12:56:42;1.90;99.90
47384;DHT22;33129;52.232;5.192;2022-12-18T12:59:25;1.60;99.90
47384;DHT22;33129;52.232;5.192;2022-12-18T13:02:19;2.00;99.90
47384;DHT22;33129;52.232;5.192;2022-12-18T13:05:07;1.80;99.90
47384;DHT22;33129;52.232;5.192;2022-12-18T13:07:45;1.80;99.90
47384;DHT22;33129;52.232;5.192;2022-12-18T13:10:28;2.10;99.90
47384;DHT22;33129;52.232;5.192;2022-12-18T13:13:11;1.90;99.90
47384;DHT22;33129;52.232;5.192;2022-12-18T13:15:42;2.10;99.90
47384;DHT22;33129;52.232;5.192;2022-12-18T13:20:48;2.40;99.90
47384;DHT22;33129;52.232;5.192;2022-12-18T13:31:00;2.40;99.90
47384;DHT22;33129;52.232;5.192;2022-12-18T13:33:46;2.60;99.90
47384;DHT22;33129;52.232;5.192;2022-12-18T13:36:32;2.30;99.90
47384;DHT22;33129;52.232;5.192;2022-12-18T13:42:31;2.50;99.90
47384;DHT22;33129;52.232;5.192;2022-12-18T13:44:58;2.40;99.90
47384;DHT22;33129;52.232;5.192;2022-12-18T13:47:28;2.50;99.90
47384;DHT22;33129;52.232;5.192;2022-12-18T13:49:58;2.50;99.90
47384;DHT22;33129;52.232;5.192;2022-12-18T13:52:33;2.30;99.90
47384;DHT22;33129;52.232;5.192;2022-12-18T13:55:03;2.40;99.90
47384;DHT22;33129;52.232;5.192;2022-12-18T13:57:32;2.30;99.90
47384;DHT22;33129;52.232;5.192;2022-12-18T14:02:49;2.50;99.90
47384;DHT22;33129;52.232;5.192;2022-12-18T14:05:26;2.30;99.90
47384;DHT22;33129;52.232;5.192;2022-12-18T14:08:01;2.40;99.90
47384;DHT22;33129;52.232;5.192;2022-12-18T14:10:30;2.10;99.90
47384;DHT22;33129;52.232;5.192;2022-12-18T14:12:57;2.00;99.90
47384;DHT22;33129;52.232;5.192;2022-12-18T14:15:35;2.10;99.90
47384;DHT22;33129;52.232;5.192;2022-12-18T14:18:38;2.40;99.90
47384;DHT22;33129;52.232;5.192;2022-12-18T14:21:25;2.30;99.90
47384;DHT22;33129;52.232;5.192;2022-12-18T14:24:15;2.20;99.90
47384;DHT22;33129;52.232;5.192;2022-12-18T14:26:46;2.40;99.90
47384;DHT22;33129;52.232;5.192;2022-12-18T14:29:30;2.00;99.90
47384;DHT22;33129;52.232;5.192;2022-12-18T14:32:12;2.20;99.90
47384;DHT22;33129;52.232;5.192;2022-12-18T14:34:41;2.40;99.90
47384;DHT22;33129;52.232;5.192;2022-12-18T14:37:10;2.40;99.90
47384;DHT22;33129;52.232;5.192;2022-12-18T14:39:37;2.30;99.90
47384;DHT22;33129;52.232;5.192;2022-12-18T14:42:03;2.20;99.90
47384;DHT22;33129;52.232;5.192;2022-12-18T14:44:29;2.20;99.90
47384;DHT22;33129;52.232;5.192;2022-12-18T14:46:55;2.30;99.90
47384;DHT22;33129;52.232;5.192;2022-12-18T14:49:33;2.40;99.90
47384;DHT22;33129;52.232;5.192;2022-12-18T14:52:13;2.20;99.90
47384;DHT22;33129;52.232;5.192;2022-12-18T14:54:47;2.20;99.90
47384;DHT22;33129;52.232;5.192;2022-12-18T14:57:25;2.20;99.90
47384;DHT22;33129;52.232;5.192;2022-12-18T14:59:52;2.30;99.90
47384;DHT22;33129;52.232;5.192;2022-12-18T15:02:28;2.40;99.90
47384;DHT22;33129;52.232;5.192;2022-12-18T15:05:03;2.20;99.90
47384;DHT22;33129;52.232;5.192;2022-12-18T15:07:53;2.50;99.90
47384;DHT22;33129;52.232;5.192;2022-12-18T15:10:25;2.50;99.90
47384;DHT22;33129;52.232;5.192;2022-12-18T15:20:48;2.70;99.90
47384;DHT22;33129;52.232;5.192;2022-12-18T15:23:19;2.90;99.90
47384;DHT22;33129;52.232;5.192;2022-12-18T15:25:53;2.80;99.90
47384;DHT22;33129;52.232;5.192;2022-12-18T15:28:29;2.50;99.90
47384;DHT22;33129;52.232;5.192;2022-12-18T15:36:47;2.50;99.90
47384;DHT22;33129;52.232;5.192;2022-12-18T15:39:13;2.60;99.90
47384;DHT22;33129;52.232;5.192;2022-12-18T15:41:39;2.50;99.90
47384;DHT22;33129;52.232;5.192;2022-12-18T15:44:24;2.60;99.90
47384;DHT22;33129;52.232;5.192;2022-12-18T15:46:50;2.60;99.90
47384;DHT22;33129;52.232;5.192;2022-12-18T15:49:16;2.60;99.90
47384;DHT22;33129;52.232;5.192;2022-12-18T15:51:42;2.60;99.90
47384;DHT22;33129;52.232;5.192;2022-12-18T15:54:13;2.70;99.90
47384;DHT22;33129;52.232;5.192;2022-12-18T15:56:41;2.60;99.90
47384;DHT22;33129;52.232;5.192;2022-12-18T15:59:26;2.40;99.90
47384;DHT22;33129;52.232;5.192;2022-12-18T16:01:52;2.40;99.90
47384;DHT22;33129;52.232;5.192;2022-12-18T16:04:20;2.60;99.90
47384;DHT22;33129;52.232;5.192;2022-12-18T16:06:47;2.60;99.90
47384;DHT22;33129;52.232;5.192;2022-12-18T16:09:13;2.60;99.90
47384;DHT22;33129;52.232;5.192;2022-12-18T16:11:42;2.50;99.90
47384;DHT22;33129;52.232;5.192;2022-12-18T16:14:26;2.50;99.90
47384;DHT22;33129;52.232;5.192;2022-12-18T16:16:57;2.60;99.90
47384;DHT22;33129;52.232;5.192;2022-12-18T16:19:24;2.30;99.90
47384;DHT22;33129;52.232;5.192;2022-12-18T16:21:52;2.20;99.90
47384;DHT22;33129;52.232;5.192;2022-12-18T16:24:21;2.40;99.90
47384;DHT22;33129;52.232;5.192;2022-12-18T16:26:49;2.50;99.90
47384;DHT22;33129;52.232;5.192;2022-12-18T16:29:17;2.40;99.90
47384;DHT22;33129;52.232;5.192;2022-12-18T16:31:43;2.50;99.90
47384;DHT22;33129;52.232;5.192;2022-12-18T16:36:52;2.70;99.90
47384;DHT22;33129;52.232;5.192;2022-12-18T16:39:22;2.40;99.90
47384;DHT22;33129;52.232;5.192;2022-12-18T16:41:48;2.90;99.90
47384;DHT22;33129;52.232;5.192;2022-12-18T16:44:14;2.60;99.90
47384;DHT22;33129;52.232;5.192;2022-12-18T16:46:40;2.50;99.90
47384;DHT22;33129;52.232;5.192;2022-12-18T16:49:08;2.60;99.90
47384;DHT22;33129;52.232;5.192;2022-12-18T16:51:35;2.70;99.90
47384;DHT22;33129;52.232;5.192;2022-12-18T16:54:01;2.60;99.90
47384;DHT22;33129;52.232;5.192;2022-12-18T16:56:27;3.10;99.90
47384;DHT22;33129;52.232;5.192;2022-12-18T16:58:55;3.00;99.90
47384;DHT22;33129;52.232;5.192;2022-12-18T17:01:22;3.00;99.90
47384;DHT22;33129;52.232;5.192;2022-12-18T17:03:53;3.10;99.90
47384;DHT22;33129;52.232;5.192;2022-12-18T17:06:21;3.10;99.90
47384;DHT22;33129;52.232;5.192;2022-12-18T17:08:48;3.10;99.90
47384;DHT22;33129;52.232;5.192;2022-12-18T17:11:14;3.00;99.90
47384;DHT22;33129;52.232;5.192;2022-12-18T17:13:40;2.90;99.90
47384;DHT22;33129;52.232;5.192;2022-12-18T17:16:06;3.10;99.90
47384;DHT22;33129;52.232;5.192;2022-12-18T17:18:33;2.80;99.90
47384;DHT22;33129;52.232;5.192;2022-12-18T17:21:03;2.90;99.90
47384;DHT22;33129;52.232;5.192;2022-12-18T17:23:31;2.80;99.90
47384;DHT22;33129;52.232;5.192;2022-12-18T17:25:57;2.70;99.90
47384;DHT22;33129;52.232;5.192;2022-12-18T17:28:25;3.10;99.90
47384;DHT22;33129;52.232;5.192;2022-12-18T17:30:53;2.80;99.90
47384;DHT22;33129;52.232;5.192;2022-12-18T17:33:20;2.90;99.90
47384;DHT22;33129;52.232;5.192;2022-12-18T17:35:46;2.90;99.90
47384;DHT22;33129;52.232;5.192;2022-12-18T17:38:12;3.10;99.90
47384;DHT22;33129;52.232;5.192;2022-12-18T17:40:38;3.00;99.90
47384;DHT22;33129;52.232;5.192;2022-12-18T17:43:08;2.70;99.90
47384;DHT22;33129;52.232;5.192;2022-12-18T17:45:36;2.50;99.90
47384;DHT22;33129;52.232;5.192;2022-12-18T17:48:03;2.80;99.90
47384;DHT22;33129;52.232;5.192;2022-12-18T17:50:32;2.80;99.90
47384;DHT22;33129;52.232;5.192;2022-12-18T17:52:58;2.90;99.90
47384;DHT22;33129;52.232;5.192;2022-12-18T17:55:24;2.80;99.90
47384;DHT22;33129;52.232;5.192;2022-12-18T17:57:51;3.40;99.90
47384;DHT22;33129;52.232;5.192;2022-12-18T18:00:17;3.80;99.90
47384;DHT22;33129;52.232;5.192;2022-12-18T18:02:43;3.50;99.90
47384;DHT22;33129;52.232;5.192;2022-12-18T18:05:09;3.20;99.90
47384;DHT22;33129;52.232;5.192;2022-12-18T18:07:37;3.10;99.90
47384;DHT22;33129;52.232;5.192;2022-12-18T18:10:05;3.20;99.90
47384;DHT22;33129;52.232;5.192;2022-12-18T18:12:31;3.20;99.90